createdAt,value
2022-11-01T00:00:16.362Z,0.0
2022-11-01T00:05:16.372Z,0.0
2022-11-01T00:10:23.048Z,0.0
2022-11-01T00:15:16.843Z,0.0
2022-11-01T00:20:16.452Z,0.0
2022-11-01T00:25:16.469Z,0.0
2022-11-01T00:30:16.503Z,0.0
2022-11-01T00:35:16.562Z,0.0
2022-11-01T00:40:16.463Z,0.0
2022-11-01T00:45:16.966Z,0.0
2022-11-01T00:50:16.645Z,0.0
2022-11-01T00:55:16.470Z,0.0
2022-11-01T01:00:17.812Z,0.0
2022-11-01T01:05:16.591Z,0.0
2022-11-01T01:10:16.603Z,0.0
2022-11-01T01:15:16.658Z,0.0
2022-11-01T01:20:16.616Z,0.0
2022-11-01T01:25:16.741Z,0.0
2022-11-01T01:30:27.556Z,0.0
2022-11-01T01:35:17.892Z,0.0
2022-11-01T01:40:17.580Z,0.0
2022-11-01T01:45:17.611Z,0.0
2022-11-01T01:50:17.661Z,0.0
2022-11-01T01:55:18.001Z,0.0
2022-11-01T02:00:17.873Z,0.0
2022-11-01T02:05:17.691Z,0.0
2022-11-01T02:10:17.658Z,0.0
2022-11-01T02:15:17.666Z,0.0
2022-11-01T02:20:17.800Z,0.0
2022-11-01T02:25:17.682Z,0.0
2022-11-01T02:30:17.978Z,0.0
2022-11-01T02:35:17.769Z,0.0
2022-11-01T02:40:17.930Z,0.0
2022-11-01T02:45:17.962Z,0.0
2022-11-01T02:50:17.861Z,0.0
2022-11-01T02:55:17.876Z,0.0
2022-11-01T03:00:17.825Z,0.0
2022-11-01T03:05:18.037Z,0.0
2022-11-01T03:10:17.872Z,0.0
2022-11-01T03:15:17.817Z,0.0
2022-11-01T03:20:17.818Z,0.0
2022-11-01T03:25:18.437Z,0.0
2022-11-01T03:30:18.297Z,0.0
2022-11-01T03:35:17.860Z,0.0
2022-11-01T03:40:17.978Z,0.0
2022-11-01T03:45:18.074Z,0.0
2022-11-01T03:50:17.978Z,0.0
2022-11-01T03:55:18.119Z,0.0
2022-11-01T04:00:17.188Z,0.0
2022-11-01T04:05:16.886Z,0.0
2022-11-01T04:10:17.072Z,0.0
2022-11-01T04:15:17.246Z,0.0
2022-11-01T04:20:17.019Z,0.0
2022-11-01T04:25:16.903Z,0.0
2022-11-01T04:30:17.063Z,0.0
2022-11-01T04:35:16.881Z,0.0
2022-11-01T04:40:17.085Z,0.0
2022-11-01T04:45:17.196Z,0.0
2022-11-01T04:50:18.306Z,0.0
2022-11-01T04:55:17.021Z,0.0
2022-11-01T05:00:17.165Z,0.0
2022-11-01T05:05:17.185Z,0.0
2022-11-01T05:10:17.082Z,0.0
2022-11-01T05:15:17.400Z,0.0
2022-11-01T05:20:17.070Z,0.0
2022-11-01T05:25:17.340Z,0.0
2022-11-01T05:30:18.132Z,0.0
2022-11-01T05:35:18.129Z,0.0
2022-11-01T05:40:18.085Z,0.0
2022-11-01T05:45:18.321Z,0.0
2022-11-01T05:50:18.295Z,0.0
2022-11-01T05:55:18.309Z,0.0
2022-11-01T06:00:18.250Z,0.0
2022-11-01T06:05:16.114Z,0.0
2022-11-01T06:10:16.237Z,0.0
2022-11-01T06:15:16.466Z,0.0
2022-11-01T06:20:16.411Z,0.0
2022-11-01T06:25:16.660Z,0.0
2022-11-01T06:30:16.909Z,0.0
2022-11-01T06:35:17.095Z,0.0
2022-11-01T06:40:16.245Z,0.0
2022-11-01T06:45:16.218Z,0.0
2022-11-01T06:50:16.281Z,0.0
2022-11-01T06:55:16.406Z,0.0
2022-11-01T07:00:16.496Z,0.0
2022-11-01T07:05:16.384Z,0.0
2022-11-01T07:10:16.352Z,0.0
2022-11-01T07:15:16.335Z,0.0
2022-11-01T07:20:16.429Z,0.0
2022-11-01T07:25:16.575Z,0.0
2022-11-01T07:30:17.479Z,0.0
2022-11-01T07:35:16.360Z,0.0
2022-11-01T07:40:17.894Z,0.0
2022-11-01T07:45:16.560Z,0.0
2022-11-01T07:50:16.339Z,0.0
2022-11-01T07:55:16.338Z,0.0
2022-11-01T08:00:16.537Z,0.0
2022-11-01T08:05:16.351Z,0.0
2022-11-01T08:10:16.584Z,0.0
2022-11-01T08:15:16.570Z,0.0
2022-11-01T08:20:16.455Z,0.0
2022-11-01T08:25:16.485Z,0.0
2022-11-01T08:30:16.618Z,0.0
2022-11-01T08:35:16.630Z,0.0
2022-11-01T08:40:16.537Z,0.0
2022-11-01T08:45:16.548Z,0.0
2022-11-01T08:50:16.906Z,0.0
2022-11-01T08:55:16.515Z,0.0
2022-11-01T09:00:16.776Z,0.0
2022-11-01T09:05:16.679Z,0.0
2022-11-01T09:10:16.644Z,0.0
2022-11-01T09:15:16.662Z,0.0
2022-11-01T09:20:16.864Z,0.0
2022-11-01T09:25:16.829Z,0.0
2022-11-01T09:30:16.651Z,0.0
2022-11-01T09:35:16.624Z,0.0
2022-11-01T09:40:16.685Z,0.0
2022-11-01T09:45:17.009Z,0.0
2022-11-01T09:50:16.756Z,0.0
2022-11-01T09:55:16.646Z,0.0
2022-11-01T10:00:17.406Z,0.0
2022-11-01T10:05:18.846Z,0.0
2022-11-01T10:10:16.711Z,0.0
2022-11-01T10:15:16.909Z,0.0
2022-11-01T10:20:16.800Z,0.0
2022-11-01T10:25:16.720Z,0.0
2022-11-01T10:30:16.952Z,0.0
2022-11-01T10:35:17.094Z,0.0
2022-11-01T10:40:16.814Z,0.0
2022-11-01T10:45:16.818Z,0.0
2022-11-01T10:50:16.891Z,0.0
2022-11-01T10:55:16.951Z,0.0
2022-11-01T11:00:16.716Z,0.0
2022-11-01T11:05:16.835Z,0.0
2022-11-01T11:10:21.075Z,0.0
2022-11-01T11:15:16.912Z,0.0
2022-11-01T11:20:17.101Z,0.0
2022-11-01T11:25:16.781Z,0.0
2022-11-01T11:30:17.165Z,0.0
2022-11-01T11:35:16.961Z,0.0
2022-11-01T11:40:17.163Z,0.0
2022-11-01T11:45:17.461Z,0.0
2022-11-01T11:50:16.947Z,0.0
2022-11-01T11:55:16.962Z,0.0
2022-11-01T12:00:17.432Z,0.0
2022-11-01T12:05:17.034Z,0.0
2022-11-01T12:10:16.984Z,0.0
2022-11-01T12:15:17.088Z,0.0
2022-11-01T12:20:17.163Z,0.0
2022-11-01T12:25:16.980Z,0.0
2022-11-01T12:30:17.133Z,0.0
2022-11-01T12:35:16.992Z,0.0
2022-11-01T12:40:17.079Z,0.0
2022-11-01T12:45:17.251Z,0.0
2022-11-01T12:50:17.047Z,0.0
2022-11-01T12:55:19.750Z,0.0
2022-11-01T13:00:17.297Z,0.0
2022-11-01T13:05:17.122Z,0.0
2022-11-01T13:10:17.373Z,0.0
2022-11-01T13:15:17.138Z,0.0
2022-11-01T13:20:17.046Z,0.0
2022-11-01T13:25:17.070Z,0.2
2022-11-01T13:30:17.430Z,0.5
2022-11-01T13:35:17.159Z,0.5
2022-11-01T13:40:17.298Z,0.4
2022-11-01T13:45:17.123Z,0.0
2022-11-01T13:50:17.233Z,0.0
2022-11-01T13:55:17.170Z,0.0
2022-11-01T14:00:17.656Z,0.0
2022-11-01T14:05:17.115Z,0.5
2022-11-01T14:10:17.305Z,0.7
2022-11-01T14:15:17.262Z,0.6
2022-11-01T14:20:17.352Z,0.4
2022-11-01T14:25:17.371Z,0.0
2022-11-01T14:30:17.348Z,0.4
2022-11-01T14:35:17.366Z,0.6
2022-11-01T14:40:17.433Z,0.9
2022-11-01T14:45:17.309Z,0.8
2022-11-01T14:50:17.323Z,0.9
2022-11-01T14:55:17.337Z,1.2
2022-11-01T15:00:17.580Z,1.2
2022-11-01T15:05:17.415Z,1.1
2022-11-01T15:10:17.522Z,1.0
2022-11-01T15:15:17.586Z,0.7
2022-11-01T15:20:17.325Z,0.5
2022-11-01T15:25:17.312Z,0.6
2022-11-01T15:30:17.843Z,0.8
2022-11-01T15:35:17.351Z,0.9
2022-11-01T15:40:17.707Z,1.0
2022-11-01T15:45:17.665Z,1.1
2022-11-01T15:50:17.508Z,1.1
2022-11-01T15:55:17.495Z,1.5
2022-11-01T16:00:18.867Z,1.4
2022-11-01T16:05:17.450Z,1.2
2022-11-01T16:10:17.888Z,1.2
2022-11-01T16:15:18.234Z,1.5
2022-11-01T16:20:17.608Z,1.6
2022-11-01T16:25:17.499Z,1.6
2022-11-01T16:30:17.737Z,1.6
2022-11-01T16:35:17.553Z,1.6
2022-11-01T16:40:18.051Z,2.0
2022-11-01T16:45:17.744Z,1.8
2022-11-01T16:50:17.610Z,1.5
2022-11-01T16:55:17.515Z,1.3
2022-11-01T17:00:17.665Z,1.3
2022-11-01T17:05:17.601Z,1.1
2022-11-01T17:10:17.617Z,1.2
2022-11-01T17:15:17.863Z,1.1
2022-11-01T17:20:17.652Z,1.0
2022-11-01T17:25:17.555Z,0.7
2022-11-01T17:30:17.718Z,0.7
2022-11-01T17:35:20.377Z,0.5
2022-11-01T17:40:17.793Z,0.6
2022-11-01T17:45:17.896Z,0.6
2022-11-01T17:50:18.322Z,0.4
2022-11-01T17:55:17.617Z,0.2
2022-11-01T18:00:18.787Z,0.5
2022-11-01T18:05:17.853Z,0.6
2022-11-01T18:10:17.767Z,0.9
2022-11-01T18:15:17.757Z,0.8
2022-11-01T18:20:17.827Z,0.5
2022-11-01T18:25:17.891Z,0.1
2022-11-01T18:30:17.924Z,0.0
2022-11-01T18:35:17.710Z,0.0
2022-11-01T18:40:17.938Z,0.0
2022-11-01T18:45:17.885Z,0.0
2022-11-01T18:50:17.847Z,0.0
2022-11-01T18:55:17.984Z,0.0
2022-11-01T19:00:18.530Z,0.0
2022-11-01T19:05:17.897Z,0.0
2022-11-01T19:10:17.875Z,0.0
2022-11-01T19:15:17.989Z,0.0
2022-11-01T19:20:17.898Z,0.0
2022-11-01T19:25:18.548Z,0.0
2022-11-01T19:30:18.119Z,0.0
2022-11-01T19:35:21.891Z,0.0
2022-11-01T19:40:18.037Z,0.0
2022-11-01T19:45:18.010Z,0.0
2022-11-01T19:50:18.008Z,0.0
2022-11-01T19:55:17.870Z,0.0
2022-11-01T20:00:18.158Z,0.0
2022-11-01T20:05:17.943Z,0.0
2022-11-01T20:10:18.376Z,0.0
2022-11-01T20:15:18.237Z,0.0
2022-11-01T20:20:18.383Z,0.0
2022-11-01T20:25:17.971Z,0.0
2022-11-01T20:30:19.838Z,0.0
2022-11-01T20:35:18.099Z,0.0
2022-11-01T20:40:18.165Z,0.0
2022-11-01T20:45:18.417Z,0.0
2022-11-01T20:50:18.302Z,0.0
2022-11-01T20:55:18.140Z,0.0
2022-11-01T21:00:18.134Z,0.0
2022-11-01T21:05:18.348Z,0.0
2022-11-01T21:10:18.226Z,0.0
2022-11-01T21:15:18.276Z,0.0
2022-11-01T21:20:18.425Z,0.0
2022-11-01T21:25:16.237Z,0.0
2022-11-01T21:30:16.369Z,0.0
2022-11-01T21:35:16.144Z,0.0
2022-11-01T21:40:16.379Z,0.0
2022-11-01T21:45:16.180Z,0.0
2022-11-01T21:50:16.296Z,0.0
2022-11-01T21:55:16.306Z,0.0
2022-11-01T22:00:16.406Z,0.0
2022-11-01T22:05:16.294Z,0.0
2022-11-01T22:10:16.365Z,0.0
2022-11-01T22:15:16.298Z,0.0
2022-11-01T22:20:16.682Z,0.0
2022-11-01T22:25:16.300Z,0.0
2022-11-01T22:30:16.835Z,0.0
2022-11-01T22:35:16.324Z,0.0
2022-11-01T22:40:16.368Z,0.0
2022-11-01T22:45:16.597Z,0.0
2022-11-01T22:50:16.533Z,0.0
2022-11-01T22:55:16.332Z,0.0
2022-11-01T23:00:22.092Z,0.0
2022-11-01T23:05:16.663Z,0.0
2022-11-01T23:10:16.373Z,0.0
2022-11-01T23:15:16.588Z,0.0
2022-11-01T23:20:16.562Z,0.0
2022-11-01T23:25:16.388Z,0.0
2022-11-01T23:30:16.500Z,0.0
2022-11-01T23:35:16.396Z,0.0
2022-11-01T23:40:16.815Z,0.0
2022-11-01T23:45:16.449Z,0.0
2022-11-01T23:50:16.515Z,0.0
2022-11-01T23:55:16.538Z,0.0
